createdAt,value
2023-08-23T00:02:01.169Z,27.18
2023-08-23T00:05:03.219Z,27.14
2023-08-23T00:08:05.578Z,27.14
2023-08-23T00:11:07.663Z,27.14
2023-08-23T00:14:09.687Z,27.11
2023-08-23T00:17:11.789Z,27.13
2023-08-23T00:20:14.150Z,27.12
2023-08-23T00:23:16.181Z,27.13
2023-08-23T00:26:18.264Z,27.14
2023-08-23T00:29:20.249Z,27.12
2023-08-23T00:32:22.308Z,27.13
2023-08-23T00:35:24.798Z,27.13
2023-08-23T00:38:26.926Z,27.13
2023-08-23T00:41:29.072Z,27.12
2023-08-23T00:44:31.098Z,27.10
2023-08-23T00:47:33.142Z,27.06
2023-08-23T00:50:35.902Z,27.06
2023-08-23T00:53:38.827Z,27.07
2023-08-23T00:56:41.394Z,27.06
2023-08-23T00:59:43.603Z,27.04
2023-08-23T01:02:46.061Z,27.02
2023-08-23T01:06:22.582Z,26.99
2023-08-23T01:09:28.126Z,26.98
2023-08-23T01:12:48.785Z,26.98
2023-08-23T01:15:55.509Z,26.99
2023-08-23T01:18:59.554Z,27.01
2023-08-23T01:22:05.075Z,27.03
2023-08-23T01:25:07.578Z,27.03
2023-08-23T01:28:09.666Z,27.03
2023-08-23T01:31:13.357Z,27.04
2023-08-23T01:34:26.877Z,27.03
2023-08-23T01:37:31.883Z,27.03
2023-08-23T01:40:34.632Z,26.99
2023-08-23T01:43:36.662Z,27.02
2023-08-23T01:46:39.242Z,26.98
2023-08-23T01:49:41.501Z,26.99
2023-08-23T01:52:43.527Z,26.98
2023-08-23T01:55:45.677Z,26.98
2023-08-23T01:58:47.736Z,26.99
2023-08-23T02:01:49.750Z,26.99
2023-08-23T02:04:51.980Z,26.98
2023-08-23T02:07:54.039Z,27.01
2023-08-23T02:10:56.494Z,26.98
2023-08-23T02:13:58.745Z,26.98
2023-08-23T02:17:05.644Z,26.99
2023-08-23T02:20:08.140Z,26.96
2023-08-23T02:23:10.544Z,26.94
2023-08-23T02:26:12.652Z,26.93
2023-08-23T02:29:14.717Z,26.91
2023-08-23T02:32:17.271Z,26.93
2023-08-23T02:35:19.331Z,26.91
2023-08-23T02:38:21.497Z,26.92
2023-08-23T02:41:23.710Z,26.93
2023-08-23T02:44:27.554Z,26.95
2023-08-23T02:47:29.664Z,26.94
2023-08-23T02:50:31.697Z,26.94
2023-08-23T02:53:33.852Z,26.93
2023-08-23T02:56:37.038Z,26.90
2023-08-23T02:59:40.788Z,26.92
2023-08-23T03:02:42.896Z,26.91
2023-08-23T03:05:59.313Z,26.90
2023-08-23T03:09:01.404Z,26.88
2023-08-23T03:12:03.646Z,26.85
2023-08-23T03:15:06.528Z,26.86
2023-08-23T03:18:08.869Z,26.86
2023-08-23T03:21:10.980Z,26.87
2023-08-23T03:24:15.400Z,26.86
2023-08-23T03:27:19.940Z,26.85
2023-08-23T03:30:22.748Z,26.84
2023-08-23T03:33:24.911Z,26.68
2023-08-23T03:36:26.982Z,26.69
2023-08-23T03:39:29.074Z,26.78
2023-08-23T03:42:31.129Z,26.82
2023-08-23T03:45:35.247Z,26.85
2023-08-23T03:48:37.559Z,26.84
2023-08-23T03:51:39.609Z,26.84
2023-08-23T03:54:41.932Z,26.85
2023-08-23T03:57:44.026Z,26.85
2023-08-23T04:00:51.019Z,26.86
2023-08-23T04:03:53.213Z,26.82
2023-08-23T04:06:55.633Z,26.80
2023-08-23T04:09:57.676Z,26.80
2023-08-23T04:12:59.825Z,26.85
2023-08-23T04:16:02.032Z,26.89
2023-08-23T04:19:04.249Z,26.91
2023-08-23T04:22:06.350Z,26.93
2023-08-23T04:25:09.027Z,26.93
2023-08-23T04:28:11.182Z,26.93
2023-08-23T04:31:13.322Z,26.95
2023-08-23T04:34:22.413Z,26.95
2023-08-23T04:37:24.533Z,26.91
2023-08-23T04:40:26.791Z,26.94
2023-08-23T04:43:30.637Z,26.95
2023-08-23T04:46:33.034Z,26.97
2023-08-23T04:49:35.030Z,26.98
2023-08-23T04:52:37.120Z,27.02
2023-08-23T04:55:39.212Z,27.05
2023-08-23T04:58:41.231Z,27.09
2023-08-23T05:01:45.342Z,27.07
2023-08-23T05:04:47.688Z,27.11
2023-08-23T05:07:50.885Z,27.36
2023-08-23T05:10:55.140Z,27.50
2023-08-23T05:13:57.250Z,27.59
2023-08-23T05:17:00.186Z,27.58
2023-08-23T05:20:02.154Z,27.57
2023-08-23T05:23:04.731Z,27.53
2023-08-23T05:26:06.941Z,27.49
2023-08-23T05:29:09.111Z,27.48
2023-08-23T05:32:11.899Z,27.48
2023-08-23T05:35:14.319Z,27.48
2023-08-23T05:38:16.784Z,27.48
2023-08-23T05:41:19.097Z,27.47
2023-08-23T05:44:21.186Z,27.46
2023-08-23T05:47:25.067Z,27.36
2023-08-23T05:50:27.357Z,27.32
2023-08-23T05:53:29.486Z,27.33
2023-08-23T05:56:31.413Z,27.37
2023-08-23T05:59:34.652Z,27.40
2023-08-23T06:02:37.179Z,27.42
2023-08-23T06:05:39.359Z,27.48
2023-08-23T06:08:41.493Z,27.53
2023-08-23T06:11:43.983Z,27.52
2023-08-23T06:14:46.208Z,27.43
2023-08-23T06:17:48.735Z,27.41
2023-08-23T06:20:51.246Z,27.42
2023-08-23T06:23:53.535Z,27.49
2023-08-23T06:26:55.697Z,27.53
2023-08-23T06:29:57.953Z,27.56
2023-08-23T06:33:00.076Z,27.59
2023-08-23T06:36:02.188Z,27.63
2023-08-23T06:39:05.021Z,27.58
2023-08-23T06:42:07.173Z,27.55
2023-08-23T06:45:10.933Z,27.57
2023-08-23T06:48:16.334Z,27.64
2023-08-23T06:51:18.744Z,27.75
2023-08-23T06:54:21.035Z,27.81
2023-08-23T06:57:30.155Z,27.81
2023-08-23T07:00:32.299Z,27.85
2023-08-23T07:03:34.617Z,27.86
2023-08-23T07:06:36.906Z,27.88
2023-08-23T07:09:39.079Z,27.92
2023-08-23T07:12:41.232Z,27.98
2023-08-23T07:15:43.450Z,28.01
2023-08-23T07:18:45.532Z,28.03
2023-08-23T07:21:47.727Z,28.03
2023-08-23T07:24:49.910Z,27.99
2023-08-23T07:27:51.930Z,27.95
2023-08-23T07:30:58.531Z,27.90
2023-08-23T07:34:00.997Z,27.85
2023-08-23T07:37:03.213Z,27.86
2023-08-23T07:40:07.670Z,27.85
2023-08-23T07:43:09.965Z,27.86
2023-08-23T07:46:12.034Z,27.86
2023-08-23T07:49:17.603Z,27.89
2023-08-23T07:52:19.759Z,27.86
2023-08-23T07:55:21.882Z,27.81
2023-08-23T07:58:24.019Z,27.84
2023-08-23T08:01:28.401Z,27.72
2023-08-23T08:04:31.321Z,27.73
2023-08-23T08:08:06.063Z,27.64
2023-08-23T08:10:55.446Z,27.68
2023-08-23T08:13:57.772Z,27.65
2023-08-23T08:17:00.010Z,27.66
2023-08-23T08:20:06.798Z,27.72
2023-08-23T08:23:08.858Z,27.72
2023-08-23T08:26:12.945Z,27.70
2023-08-23T08:29:15.024Z,27.74
2023-08-23T08:32:17.157Z,27.82
2023-08-23T08:35:19.883Z,27.91
2023-08-23T08:38:23.814Z,27.90
2023-08-23T08:41:26.441Z,27.98
2023-08-23T08:44:28.896Z,27.93
2023-08-23T08:47:31.107Z,27.93
2023-08-23T08:50:34.653Z,27.94
2023-08-23T08:53:38.264Z,28.02
2023-08-23T08:56:41.837Z,28.03
2023-08-23T08:59:46.795Z,28.09
2023-08-23T09:02:53.152Z,28.12
2023-08-23T09:05:55.410Z,28.19
2023-08-23T09:09:00.030Z,28.24
2023-08-23T09:12:02.280Z,28.29
2023-08-23T09:15:08.297Z,28.33
2023-08-23T09:18:11.644Z,28.40
2023-08-23T09:21:14.695Z,28.45
2023-08-23T09:24:18.068Z,28.54
2023-08-23T09:27:36.929Z,28.69
2023-08-23T09:30:41.286Z,28.73
2023-08-23T09:33:43.846Z,28.81
2023-08-23T09:36:46.766Z,28.87
2023-08-23T09:39:48.897Z,28.96
2023-08-23T09:42:52.265Z,28.99
2023-08-23T09:45:54.721Z,28.97
2023-08-23T09:48:58.481Z,29.05
2023-08-23T09:52:04.302Z,29.14
2023-08-23T09:55:15.492Z,29.22
2023-08-23T09:58:18.634Z,29.22
2023-08-23T10:01:21.562Z,29.19
2023-08-23T10:04:31.023Z,29.12
2023-08-23T10:07:37.001Z,29.07
2023-08-23T10:10:43.606Z,29.13
2023-08-23T10:13:48.379Z,29.17
2023-08-23T10:16:51.749Z,29.25
2023-08-23T10:19:54.249Z,29.24
2023-08-23T10:22:59.272Z,29.34
2023-08-23T10:26:03.439Z,29.64
2023-08-23T10:29:10.902Z,30.02
2023-08-23T10:32:13.000Z,30.51
2023-08-23T10:35:33.271Z,30.85
2023-08-23T10:38:36.082Z,31.12
2023-08-23T10:41:38.384Z,31.31
2023-08-23T10:44:48.409Z,31.48
2023-08-23T10:47:52.453Z,31.56
2023-08-23T10:50:55.832Z,31.67
2023-08-23T10:53:58.980Z,31.68
2023-08-23T10:57:01.226Z,31.75
2023-08-23T11:00:04.748Z,31.60
2023-08-23T11:03:08.293Z,31.65
2023-08-23T11:06:10.829Z,31.66
2023-08-23T11:09:13.021Z,31.67
2023-08-23T11:12:15.008Z,31.43
2023-08-23T11:15:17.168Z,31.41
2023-08-23T11:18:19.263Z,31.55
2023-08-23T11:21:22.075Z,31.40
2023-08-23T11:24:24.490Z,31.19
2023-08-23T11:27:26.473Z,31.17
2023-08-23T11:30:28.716Z,31.23
2023-08-23T11:33:33.586Z,31.24
2023-08-23T11:36:37.504Z,31.14
2023-08-23T11:39:39.575Z,30.95
2023-08-23T11:42:41.946Z,30.80
2023-08-23T11:45:44.169Z,30.68
2023-08-23T11:48:46.326Z,30.87
2023-08-23T11:51:51.721Z,30.66
2023-08-23T11:54:54.948Z,30.64
2023-08-23T11:57:57.281Z,30.59
2023-08-23T12:00:59.565Z,30.46
2023-08-23T12:04:02.231Z,30.40
2023-08-23T12:07:04.249Z,30.31
2023-08-23T12:10:10.000Z,30.26
2023-08-23T12:13:13.432Z,30.27
2023-08-23T12:16:15.457Z,30.22
2023-08-23T12:19:30.704Z,30.15
2023-08-23T12:22:33.049Z,29.99
2023-08-23T12:25:35.102Z,30.00
2023-08-23T12:28:38.846Z,30.07
2023-08-23T12:31:40.927Z,30.04
2023-08-23T12:34:42.884Z,29.98
2023-08-23T12:37:44.913Z,29.91
2023-08-23T12:40:47.024Z,29.95
2023-08-23T12:43:49.014Z,29.81
2023-08-23T12:46:51.230Z,29.94
2023-08-23T12:49:53.329Z,29.97
2023-08-23T12:52:55.432Z,29.72
2023-08-23T12:55:57.777Z,29.67
2023-08-23T12:59:00.268Z,29.81
2023-08-23T13:02:02.873Z,29.87
2023-08-23T13:05:05.309Z,29.72
2023-08-23T13:08:07.673Z,29.64
2023-08-23T13:11:09.991Z,29.55
2023-08-23T13:14:12.085Z,29.63
2023-08-23T13:17:14.588Z,29.81
2023-08-23T13:20:16.794Z,29.86
2023-08-23T13:23:18.897Z,29.84
2023-08-23T13:26:20.937Z,29.83
2023-08-23T13:29:23.108Z,29.83
2023-08-23T13:32:27.678Z,29.74
2023-08-23T13:35:30.202Z,29.72
2023-08-23T13:38:32.434Z,29.71
2023-08-23T13:41:34.746Z,29.66
2023-08-23T13:44:36.861Z,29.68
2023-08-23T13:47:39.402Z,29.73
2023-08-23T13:50:41.550Z,29.69
2023-08-23T13:53:47.318Z,29.67
2023-08-23T13:56:49.464Z,29.69
2023-08-23T13:59:51.459Z,29.73
2023-08-23T14:02:53.661Z,29.71
2023-08-23T14:05:59.833Z,29.65
2023-08-23T14:09:01.940Z,29.64
2023-08-23T14:12:04.361Z,29.66
2023-08-23T14:15:07.035Z,29.62
2023-08-23T14:18:09.266Z,29.68
2023-08-23T14:21:11.404Z,29.74
2023-08-23T14:24:14.574Z,29.82
2023-08-23T14:27:16.897Z,29.97
2023-08-23T14:30:19.441Z,29.98
2023-08-23T14:33:21.577Z,29.88
2023-08-23T14:36:23.816Z,29.82
2023-08-23T14:39:26.176Z,29.85
2023-08-23T14:42:28.596Z,29.90
2023-08-23T14:45:30.694Z,29.95
2023-08-23T14:48:32.810Z,30.02
2023-08-23T14:51:35.110Z,30.03
2023-08-23T14:54:37.219Z,30.06
2023-08-23T14:57:39.453Z,30.10
2023-08-23T15:00:41.423Z,30.10
2023-08-23T15:03:43.899Z,30.06
2023-08-23T15:06:46.079Z,30.01
2023-08-23T15:09:48.598Z,29.86
2023-08-23T15:12:50.667Z,29.89
2023-08-23T15:16:03.002Z,29.91
2023-08-23T15:19:05.252Z,29.94
2023-08-23T15:22:07.319Z,29.94
2023-08-23T15:25:10.878Z,29.89
2023-08-23T15:28:13.519Z,29.66
2023-08-23T15:31:15.566Z,29.62
2023-08-23T15:34:17.612Z,29.61
2023-08-23T15:37:21.438Z,29.58
2023-08-23T15:40:24.106Z,29.46
2023-08-23T15:43:26.248Z,29.49
2023-08-23T15:46:28.438Z,29.47
2023-08-23T15:49:30.672Z,29.45
2023-08-23T15:52:33.189Z,29.39
2023-08-23T15:55:35.481Z,29.37
2023-08-23T15:58:38.226Z,29.33
2023-08-23T16:01:40.700Z,29.29
2023-08-23T16:04:45.328Z,29.35
2023-08-23T16:07:50.743Z,29.31
2023-08-23T16:10:53.310Z,29.20
2023-08-23T16:13:55.414Z,29.15
2023-08-23T16:16:59.716Z,29.12
2023-08-23T16:20:01.839Z,29.05
2023-08-23T16:23:04.005Z,29.09
2023-08-23T16:26:06.171Z,29.14
2023-08-23T16:29:08.346Z,29.08
2023-08-23T16:32:10.368Z,29.00
2023-08-23T16:35:12.574Z,28.92
2023-08-23T16:38:14.833Z,28.90
2023-08-23T16:41:17.157Z,28.90
2023-08-23T16:44:19.192Z,28.88
2023-08-23T16:47:23.272Z,28.83
2023-08-23T16:50:27.189Z,28.79
2023-08-23T16:53:30.250Z,28.76
2023-08-23T16:56:32.375Z,28.77
2023-08-23T16:59:34.388Z,28.72
2023-08-23T17:02:39.770Z,28.65
2023-08-23T17:05:41.932Z,28.62
2023-08-23T17:08:44.052Z,28.58
2023-08-23T17:11:46.056Z,28.47
2023-08-23T17:14:48.095Z,28.56
2023-08-23T17:17:50.463Z,28.55
2023-08-23T17:21:02.372Z,28.49
2023-08-23T17:24:04.664Z,28.51
2023-08-23T17:27:07.011Z,28.47
2023-08-23T17:30:09.422Z,28.40
2023-08-23T17:33:11.625Z,28.42
2023-08-23T17:36:13.821Z,28.40
2023-08-23T17:39:18.351Z,28.39
2023-08-23T17:42:20.695Z,28.37
2023-08-23T17:45:22.788Z,28.36
2023-08-23T17:48:24.840Z,28.35
2023-08-23T17:51:27.101Z,28.33
2023-08-23T17:54:29.310Z,28.30
2023-08-23T17:57:31.416Z,28.28
2023-08-23T18:00:34.198Z,28.24
2023-08-23T18:03:36.423Z,28.23
2023-08-23T18:06:38.461Z,28.22
2023-08-23T18:09:40.586Z,28.16
2023-08-23T18:12:42.806Z,28.16
2023-08-23T18:15:47.608Z,28.17
2023-08-23T18:18:49.642Z,28.13
2023-08-23T18:21:51.669Z,28.13
2023-08-23T18:24:53.777Z,28.13
2023-08-23T18:27:55.854Z,28.10
2023-08-23T18:30:58.024Z,28.07
2023-08-23T18:34:00.106Z,28.11
2023-08-23T18:37:02.095Z,28.11
2023-08-23T18:40:05.818Z,28.08
2023-08-23T18:43:08.031Z,28.04
2023-08-23T18:46:10.400Z,28.02
2023-08-23T18:49:12.592Z,28.00
2023-08-23T18:52:14.601Z,27.98
2023-08-23T18:55:16.767Z,27.96
2023-08-23T18:58:18.990Z,27.93
2023-08-23T19:01:21.065Z,27.92
2023-08-23T19:04:23.317Z,27.92
2023-08-23T19:07:25.365Z,27.91
2023-08-23T19:10:27.433Z,27.92
2023-08-23T19:13:29.485Z,27.89
2023-08-23T19:16:31.561Z,27.90
2023-08-23T19:19:34.349Z,27.83
2023-08-23T19:22:36.699Z,27.86
2023-08-23T19:25:38.776Z,27.86
2023-08-23T19:28:40.921Z,27.78
2023-08-23T19:31:57.636Z,27.78
2023-08-23T19:34:59.755Z,27.78
2023-08-23T19:38:01.749Z,27.62
2023-08-23T19:41:03.923Z,27.79
2023-08-23T19:44:06.131Z,27.76
2023-08-23T19:47:08.723Z,27.77
2023-08-23T19:50:10.791Z,27.76
2023-08-23T19:53:12.948Z,27.77
2023-08-23T19:56:15.062Z,27.77
2023-08-23T19:59:17.511Z,27.76
2023-08-23T20:02:19.564Z,27.76
2023-08-23T20:05:22.602Z,27.76
2023-08-23T20:08:25.021Z,27.76
2023-08-23T20:11:27.122Z,27.74
2023-08-23T20:14:32.252Z,27.72
2023-08-23T20:17:34.861Z,27.66
2023-08-23T20:20:37.263Z,27.70
2023-08-23T20:23:39.402Z,27.64
2023-08-23T20:26:41.737Z,27.68
2023-08-23T20:29:45.249Z,27.65
2023-08-23T20:32:48.979Z,27.65
2023-08-23T20:35:52.585Z,27.61
2023-08-23T20:38:54.964Z,27.64
2023-08-23T20:41:57.100Z,27.64
2023-08-23T20:44:59.196Z,27.64
2023-08-23T20:48:02.424Z,27.65
2023-08-23T20:51:05.138Z,27.63
2023-08-23T20:54:07.226Z,27.61
2023-08-23T20:57:10.124Z,27.61
2023-08-23T21:00:12.419Z,27.60
2023-08-23T21:03:14.559Z,27.57
2023-08-23T21:06:16.765Z,27.58
2023-08-23T21:09:19.014Z,27.53
2023-08-23T21:12:21.267Z,27.54
2023-08-23T21:15:23.413Z,27.55
2023-08-23T21:18:26.822Z,27.54
2023-08-23T21:21:29.508Z,27.53
2023-08-23T21:24:31.707Z,27.53
2023-08-23T21:27:33.941Z,27.53
2023-08-23T21:30:36.381Z,27.54
2023-08-23T21:33:38.600Z,27.53
2023-08-23T21:36:41.173Z,27.50
2023-08-23T21:39:44.119Z,27.52
2023-08-23T21:42:46.490Z,27.51
2023-08-23T21:45:48.546Z,27.49
2023-08-23T21:48:50.671Z,27.44
2023-08-23T21:51:52.745Z,27.39
2023-08-23T21:54:54.889Z,27.41
2023-08-23T21:57:57.617Z,27.43
2023-08-23T22:01:03.890Z,27.43
2023-08-23T22:04:06.257Z,27.42
2023-08-23T22:07:08.352Z,27.42
2023-08-23T22:10:10.486Z,27.44
2023-08-23T22:13:12.583Z,27.44
2023-08-23T22:16:14.922Z,27.43
2023-08-23T22:19:17.068Z,27.39
2023-08-23T22:22:19.216Z,27.42
2023-08-23T22:25:21.435Z,27.42
2023-08-23T22:28:23.546Z,27.41
2023-08-23T22:31:26.227Z,27.40
2023-08-23T22:34:28.266Z,27.38
2023-08-23T22:37:30.260Z,27.38
2023-08-23T22:40:32.714Z,27.34
2023-08-23T22:43:34.883Z,27.32
2023-08-23T22:46:37.602Z,27.34
2023-08-23T22:49:39.796Z,27.31
2023-08-23T22:52:42.788Z,27.34
2023-08-23T22:55:44.858Z,27.34
2023-08-23T22:58:47.060Z,27.35
2023-08-23T23:01:49.283Z,27.34
2023-08-23T23:04:52.316Z,27.34
2023-08-23T23:07:54.423Z,27.33
2023-08-23T23:11:02.227Z,27.32
2023-08-23T23:14:04.320Z,27.31
2023-08-23T23:17:06.486Z,27.30
2023-08-23T23:20:16.843Z,27.29
2023-08-23T23:23:19.762Z,27.30
2023-08-23T23:26:21.837Z,27.29
2023-08-23T23:29:23.977Z,27.25
2023-08-23T23:32:26.123Z,27.27
2023-08-23T23:35:28.279Z,27.26
2023-08-23T23:38:30.734Z,27.27
2023-08-23T23:41:32.917Z,27.28
2023-08-23T23:44:35.150Z,27.28
2023-08-23T23:47:37.150Z,27.29
2023-08-23T23:50:39.379Z,27.28
2023-08-23T23:53:41.446Z,27.27
2023-08-23T23:56:43.487Z,27.24
2023-08-23T23:59:45.555Z,27.25
